Terminal Aerodrome Forecast
Issued by NWS North Platte, NE

Home | Current Version | Previous Version | Graphics & Text | Print | Product List | Glossary On
Versions: 1 2 3 4 5 6 7 8 9 10 11 12 13 14 15
000
FTUS43 KLBF 270520
TAFVTN
TAF
KVTN 270520Z 2706/2806 VRB05KT P6SM SCT030
     FM271000 19005KT 3SM BR OVC020
      TEMPO 2711/2715 1SM BR OVC015
     FM271600 20008KT P6SM SCT250
     FM271900 21009KT P6SM SKC
     FM280100 VRB06KT P6SM SKC=

USA.gov is the U.S. government's official web portal to all federal, state and local government web resources and services.